WetterOnline ( https://www.wetteronline.de )

Wetter aktuell Wälschbuch

Aktuelles Wetter: Weihenstephan-Dürnast (478m)

6-stündlich | Neueste Meldungen
Ortszeit Temperatur Wetter
Di, 29.11. 7:00 3.1° C leichter Regen
Di, 29.11. 1:00 3.2° C leichter Regen
Mo, 28.11. 19:00 3.6° C bedeckt
Mo, 28.11. 13:00 4.0° C bedeckt
Mo, 28.11. 7:00 1.0° C bewölkt
Mo, 28.11. 1:00 1.0° C bedeckt
So, 27.11. 19:00 1.2° C bedeckt
So, 27.11. 13:00 0.1° C Nebel
Ortszeit Temperatur Wetter
Di, 29.11. 12:30 4.3° C leichter Regen
Di, 29.11. 12:20 4.3° C leichter Regen
Di, 29.11. 12:10 4.2° C leichter Regen
Di, 29.11. 12:00 4.2° C leichter Regen
Di, 29.11. 11:50 4.2° C leichter Regen
Di, 29.11. 11:40 4.2° C leichter Regen
Di, 29.11. 11:30 4.1° C leichter Regen
Di, 29.11. 11:00 4.1° C leichter Regen
Di, 29.11. 10:30 3.9° C leichter Regen
Di, 29.11. 10:00 3.7° C leichter Regen
Di, 29.11. 9:30 3.6° C leichter Regen
Ortszeit Relative Feuchte Sichtweite
Di, 29.11. 7:00 97% 4.7 km
Di, 29.11. 1:00 98% 4.2 km
Mo, 28.11. 19:00 92% 10 km
Mo, 28.11. 13:00 81% 23 km
Mo, 28.11. 7:00 94% 6 km
Mo, 28.11. 1:00 97% 3.9 km
So, 27.11. 19:00 94% 10 km
So, 27.11. 13:00 100% 4.5 km
Ortszeit Relative Feuchte Sichtweite
Di, 29.11. 12:30 97% 4.6 km
Di, 29.11. 12:20 97% -
Di, 29.11. 12:10 97% -
Di, 29.11. 12:00 97% 4.5 km
Di, 29.11. 11:50 97% -
Di, 29.11. 11:40 96% -
Di, 29.11. 11:30 97% 6 km
Di, 29.11. 11:00 97% 5.0 km
Di, 29.11. 10:30 96% 5.0 km
Di, 29.11. 10:00 97% 4.8 km
Di, 29.11. 9:30 97% 5.0 km
Ortszeit Niederschlagsmenge Niederschlagsart
Di, 29.11. 7:00 3 l/m2 in 12 Std. Regen
Di, 29.11. 1:00 1 l/m2 in 6 Std. Regen
Mo, 28.11. 19:00 0.0 l/m2 in 12 Std. -
Mo, 28.11. 13:00 0.0 l/m2 in 6 Std. -
Mo, 28.11. 7:00 0.0 l/m2 in 12 Std. -
Mo, 28.11. 1:00 0.0 l/m2 in 6 Std. -
So, 27.11. 19:00 0.0 l/m2 in 12 Std. -
So, 27.11. 13:00 0.0 l/m2 in 6 Std. -
Ortszeit Niederschlagsmenge Niederschlagsart
Di, 29.11. 12:30 0.2 l/m2 in 1 Std. -
Di, 29.11. 12:20 keine Meldung -
Di, 29.11. 12:10 keine Meldung -
Di, 29.11. 12:00 0.2 l/m2 in 1 Std. Regen
Di, 29.11. 11:50 keine Meldung -
Di, 29.11. 11:40 keine Meldung -
Di, 29.11. 11:30 0.1 l/m2 in 1 Std. -
Di, 29.11. 11:00 0.1 l/m2 in 1 Std. Regen
Di, 29.11. 10:30 0.1 l/m2 in 1 Std. -
Di, 29.11. 10:00 <0.05 l/m2 in 1 Std. Regen
Di, 29.11. 9:30 <0.05 l/m2 in 1 Std. -
Ortszeit Stärke Spitze Richtung
km/h Bft. km/h Grad Sektor
Di, 29.11. 7:00 9 2 13 100° O
Di, 29.11. 1:00 6 1 15 100° O
Mo, 28.11. 19:00 4 1 7 100° O
Mo, 28.11. 13:00 2 1 20 260° W
Mo, 28.11. 7:00 7 2 22 150° SO
Mo, 28.11. 1:00 15 3 24 100° O
So, 27.11. 19:00 18 3 25 120° SO
So, 27.11. 13:00 7 2 18 70° O
Ortszeit Stärke Spitze Richtung
km/h Bft. km/h Grad Sektor
Di, 29.11. 12:30 9 2 13 80° O
Di, 29.11. 12:20 9 2 - 80° O
Di, 29.11. 12:10 7 2 - 80° O
Di, 29.11. 12:00 9 2 13 80° O
Di, 29.11. 11:50 9 2 - 80° O
Di, 29.11. 11:40 11 2 - 90° O
Di, 29.11. 11:30 9 2 11 90° O
Di, 29.11. 11:00 7 2 11 100° O
Di, 29.11. 10:30 9 2 11 100° O
Di, 29.11. 10:00 7 2 11 100° O
Di, 29.11. 9:30 7 2 11 90° O
Ortszeit Untergrenze Bedeckung Gattung
total tief tief mittel hoch
Di, 29.11. 7:00 60 m 8/8 8/8 - - -
Di, 29.11. 1:00 990 m 8/8 8/8 - - -
Mo, 28.11. 19:00 1500 m 8/8 8/8 - - -
Mo, 28.11. 13:00 2400 m 8/8 8/8 - - -
Mo, 28.11. 7:00 150 m 8/8 4/8 - - -
Mo, 28.11. 1:00 60 m 8/8 8/8 - - -
So, 27.11. 19:00 120 m 8/8 8/8 - - -
So, 27.11. 13:00 60 m 8/8 8/8 - - -
Ortszeit Bedeckungsgrad in Achtel und Wolkenuntergrenze
Di, 29.11. 12:30 8(90m)
Di, 29.11. 12:20 8(90m)
Di, 29.11. 12:10 8
Di, 29.11. 12:00 8(90m)
Di, 29.11. 11:50 8(90m)
Di, 29.11. 11:40 8
Di, 29.11. 11:30 8(90m)
Di, 29.11. 11:00 8(90m) 8(930m)
Di, 29.11. 10:30 6(90m) 6(360m) 7(870m)
Di, 29.11. 10:00 5(90m) 7(570m) 8(840m)
Di, 29.11. 9:30 7(90m) 7(270m) 8(750m)
Ortszeit Luftdruck NN (hPa) Tendenz (hPa in 3 Std.)
Di, 29.11. 7:00 1017 + 0,6
Di, 29.11. 1:00 1017 0,0
Mo, 28.11. 19:00 1016 - 0,1
Mo, 28.11. 13:00 1016 - 0,3
Mo, 28.11. 7:00 1018 - 0,9
Mo, 28.11. 1:00 1020 - 2,0
So, 27.11. 19:00 1024 - 2,4
So, 27.11. 13:00 1029 - 1,4
Ortszeit Luftdruck NN (hPa) Tendenz (hPa in 3 Std.)
Di, 29.11. 12:30 1018 + 0,4
Di, 29.11. 12:20 1018 keine Meldung
Di, 29.11. 12:10 1018 keine Meldung
Di, 29.11. 12:00 1018 + 0,4
Di, 29.11. 11:50 1018 keine Meldung
Di, 29.11. 11:40 1018 keine Meldung
Di, 29.11. 11:30 1018 + 0,6
Di, 29.11. 11:00 1018 + 0,8
Di, 29.11. 10:30 1018 + 0,9
Di, 29.11. 10:00 1018 + 0,8
Di, 29.11. 9:30 1018 + 0,9
Ortszeit Schneehöhe (cm)
Di, 29.11. 7:00 0
Di, 29.11. 1:00 0
Mo, 28.11. 19:00 0
Mo, 28.11. 13:00 0
Mo, 28.11. 7:00 0
Mo, 28.11. 1:00 0
So, 27.11. 19:00 0
So, 27.11. 13:00 0
Ortszeit Schneehöhe (cm)
Di, 29.11. 12:30 0
Di, 29.11. 12:20 0
Di, 29.11. 12:10 0
Di, 29.11. 12:00 0
Di, 29.11. 11:50 0
Di, 29.11. 11:40 0
Di, 29.11. 11:30 0
Di, 29.11. 11:00 0
Di, 29.11. 10:30 0
Di, 29.11. 10:00 0
Di, 29.11. 9:30 0
Link zu dieser Seite / Seite empfehlen

Das Wetter in ...